Red Oak, Oklahoma
Current Conditions -  °F | °C
As of 4:35 AM on Wednesday 22 Oct 2014 (Local Time) from KGZL Reporting Station
Overcast Overcast  
Wind Chill: 59°   Ceiling: 5000
Heat Index: 59°   Visibility: 10mi
Dew Point: 57°   Wind: 7mph
Humidity: 94%   Direction: 90°E
Pressure: 30.11"   Gusts: NA
Location:  34.95°N, 95.08°W
Report Text: KGZL 220935Z AUTO 09006KT 10SM OVC050 15/14 A3011 RMK AO2
Loading
Personal Weather Stations






























Interactive Weather Map
Tropical Storm Tracking
New forecast layout! Learn more

10-Day Weather Forecast

Advertisements
Track Severe Weather on mobile